sensor_id;sensor_type;location;lat;lon;timestamp;P1;durP1;ratioP1;P2;durP2;ratioP2
29422;SDS011;16399;51.686;8.684;2024-02-21T00:00:38;22.70;;;8.48;;
29422;SDS011;16399;51.686;8.684;2024-02-21T00:03:42;26.40;;;10.03;;
29422;SDS011;16399;51.686;8.684;2024-02-21T00:06:44;24.70;;;9.15;;
29422;SDS011;16399;51.686;8.684;2024-02-21T00:09:46;30.35;;;9.83;;
29422;SDS011;16399;51.686;8.684;2024-02-21T00:12:49;27.27;;;9.23;;
29422;SDS011;16399;51.686;8.684;2024-02-21T00:15:51;20.57;;;8.60;;
29422;SDS011;16399;51.686;8.684;2024-02-21T00:18:54;27.48;;;9.95;;
29422;SDS011;16399;51.686;8.684;2024-02-21T00:21:56;28.47;;;9.45;;
29422;SDS011;16399;51.686;8.684;2024-02-21T00:24:58;25.68;;;9.83;;
29422;SDS011;16399;51.686;8.684;2024-02-21T00:28:01;23.40;;;9.63;;
29422;SDS011;16399;51.686;8.684;2024-02-21T00:31:03;25.65;;;10.00;;
29422;SDS011;16399;51.686;8.684;2024-02-21T00:34:05;25.52;;;10.70;;
29422;SDS011;16399;51.686;8.684;2024-02-21T00:37:08;24.98;;;10.32;;
29422;SDS011;16399;51.686;8.684;2024-02-21T00:40:10;32.42;;;9.45;;
29422;SDS011;16399;51.686;8.684;2024-02-21T00:43:13;27.30;;;10.13;;
29422;SDS011;16399;51.686;8.684;2024-02-21T00:46:15;21.33;;;9.50;;
29422;SDS011;16399;51.686;8.684;2024-02-21T00:49:17;24.77;;;10.03;;
29422;SDS011;16399;51.686;8.684;2024-02-21T00:52:20;26.90;;;10.15;;
29422;SDS011;16399;51.686;8.684;2024-02-21T00:55:22;33.70;;;10.65;;
29422;SDS011;16399;51.686;8.684;2024-02-21T00:58:24;24.57;;;10.72;;
29422;SDS011;16399;51.686;8.684;2024-02-21T01:01:27;25.45;;;10.23;;
29422;SDS011;16399;51.686;8.684;2024-02-21T01:04:29;29.30;;;11.33;;
29422;SDS011;16399;51.686;8.684;2024-02-21T01:07:31;31.42;;;10.55;;
29422;SDS011;16399;51.686;8.684;2024-02-21T01:10:33;29.82;;;11.20;;
29422;SDS011;16399;51.686;8.684;2024-02-21T01:13:36;26.45;;;11.35;;
29422;SDS011;16399;51.686;8.684;2024-02-21T01:16:38;27.27;;;11.00;;
29422;SDS011;16399;51.686;8.684;2024-02-21T01:19:40;21.95;;;10.40;;
29422;SDS011;16399;51.686;8.684;2024-02-21T01:22:43;24.85;;;10.55;;
29422;SDS011;16399;51.686;8.684;2024-02-21T01:25:45;25.37;;;10.72;;
29422;SDS011;16399;51.686;8.684;2024-02-21T01:28:47;24.02;;;10.43;;
29422;SDS011;16399;51.686;8.684;2024-02-21T01:31:49;28.95;;;10.90;;
29422;SDS011;16399;51.686;8.684;2024-02-21T01:34:52;27.15;;;10.03;;
29422;SDS011;16399;51.686;8.684;2024-02-21T01:37:54;24.60;;;10.65;;
29422;SDS011;16399;51.686;8.684;2024-02-21T01:40:56;21.90;;;8.75;;
29422;SDS011;16399;51.686;8.684;2024-02-21T01:43:59;26.35;;;10.78;;
29422;SDS011;16399;51.686;8.684;2024-02-21T01:47:01;24.82;;;10.58;;
29422;SDS011;16399;51.686;8.684;2024-02-21T01:50:04;21.25;;;9.53;;
29422;SDS011;16399;51.686;8.684;2024-02-21T01:53:06;20.75;;;9.38;;
29422;SDS011;16399;51.686;8.684;2024-02-21T01:56:09;25.32;;;9.90;;
29422;SDS011;16399;51.686;8.684;2024-02-21T01:59:13;20.25;;;8.95;;
29422;SDS011;16399;51.686;8.684;2024-02-21T02:02:18;25.00;;;8.80;;
29422;SDS011;16399;51.686;8.684;2024-02-21T02:05:20;21.20;;;9.48;;
29422;SDS011;16399;51.686;8.684;2024-02-21T02:16:26;23.10;;;8.83;;
29422;SDS011;16399;51.686;8.684;2024-02-21T02:19:28;24.30;;;9.03;;
29422;SDS011;16399;51.686;8.684;2024-02-21T02:22:31;21.95;;;9.38;;
29422;SDS011;16399;51.686;8.684;2024-02-21T02:25:35;22.35;;;8.93;;
29422;SDS011;16399;51.686;8.684;2024-02-21T02:28:38;21.60;;;8.68;;
29422;SDS011;16399;51.686;8.684;2024-02-21T02:31:41;24.72;;;9.13;;
29422;SDS011;16399;51.686;8.684;2024-02-21T02:34:43;18.85;;;8.30;;
29422;SDS011;16399;51.686;8.684;2024-02-21T02:37:48;21.40;;;8.83;;
29422;SDS011;16399;51.686;8.684;2024-02-21T02:40:51;22.80;;;8.55;;
29422;SDS011;16399;51.686;8.684;2024-02-21T02:43:54;21.15;;;8.60;;
29422;SDS011;16399;51.686;8.684;2024-02-21T02:46:56;21.93;;;8.63;;
29422;SDS011;16399;51.686;8.684;2024-02-21T02:49:59;20.23;;;8.80;;
29422;SDS011;16399;51.686;8.684;2024-02-21T02:53:02;20.40;;;8.15;;
29422;SDS011;16399;51.686;8.684;2024-02-21T02:56:04;24.87;;;10.28;;
29422;SDS011;16399;51.686;8.684;2024-02-21T02:59:06;20.65;;;9.23;;
29422;SDS011;16399;51.686;8.684;2024-02-21T03:02:08;24.20;;;9.53;;
29422;SDS011;16399;51.686;8.684;2024-02-21T03:05:12;24.57;;;8.83;;
29422;SDS011;16399;51.686;8.684;2024-02-21T03:08:16;19.80;;;9.15;;
29422;SDS011;16399;51.686;8.684;2024-02-21T03:11:18;20.30;;;8.55;;
29422;SDS011;16399;51.686;8.684;2024-02-21T03:14:21;23.70;;;8.38;;
29422;SDS011;16399;51.686;8.684;2024-02-21T03:17:24;23.80;;;9.08;;
29422;SDS011;16399;51.686;8.684;2024-02-21T03:20:29;20.43;;;8.70;;
29422;SDS011;16399;51.686;8.684;2024-02-21T03:23:32;18.77;;;7.90;;
29422;SDS011;16399;51.686;8.684;2024-02-21T03:26:35;23.92;;;8.83;;
29422;SDS011;16399;51.686;8.684;2024-02-21T03:29:37;23.05;;;8.65;;
29422;SDS011;16399;51.686;8.684;2024-02-21T03:32:39;17.10;;;7.53;;
29422;SDS011;16399;51.686;8.684;2024-02-21T03:35:42;20.02;;;8.13;;
29422;SDS011;16399;51.686;8.684;2024-02-21T03:38:44;23.60;;;7.92;;
29422;SDS011;16399;51.686;8.684;2024-02-21T03:41:46;18.75;;;8.05;;
29422;SDS011;16399;51.686;8.684;2024-02-21T03:44:50;15.50;;;7.25;;
29422;SDS011;16399;51.686;8.684;2024-02-21T03:47:57;16.87;;;6.78;;
29422;SDS011;16399;51.686;8.684;2024-02-21T03:54:57;20.00;;;7.83;;
29422;SDS011;16399;51.686;8.684;2024-02-21T03:57:59;16.82;;;6.92;;
29422;SDS011;16399;51.686;8.684;2024-02-21T04:01:02;16.57;;;6.90;;
29422;SDS011;16399;51.686;8.684;2024-02-21T04:04:04;16.80;;;7.17;;
29422;SDS011;16399;51.686;8.684;2024-02-21T04:07:07;15.53;;;7.20;;
29422;SDS011;16399;51.686;8.684;2024-02-21T04:10:09;12.65;;;6.25;;
29422;SDS011;16399;51.686;8.684;2024-02-21T04:13:12;19.20;;;7.15;;
29422;SDS011;16399;51.686;8.684;2024-02-21T04:16:14;18.45;;;6.40;;
29422;SDS011;16399;51.686;8.684;2024-02-21T04:19:17;17.90;;;6.62;;
29422;SDS011;16399;51.686;8.684;2024-02-21T04:22:19;16.27;;;6.03;;
29422;SDS011;16399;51.686;8.684;2024-02-21T04:25:21;14.93;;;6.55;;
29422;SDS011;16399;51.686;8.684;2024-02-21T04:28:23;16.80;;;6.28;;
29422;SDS011;16399;51.686;8.684;2024-02-21T04:31:26;18.12;;;6.97;;
29422;SDS011;16399;51.686;8.684;2024-02-21T04:34:28;21.90;;;6.40;;
29422;SDS011;16399;51.686;8.684;2024-02-21T04:37:31;16.23;;;6.97;;
29422;SDS011;16399;51.686;8.684;2024-02-21T04:40:33;20.17;;;6.62;;
29422;SDS011;16399;51.686;8.684;2024-02-21T04:43:35;21.17;;;6.95;;
29422;SDS011;16399;51.686;8.684;2024-02-21T04:46:37;16.17;;;6.53;;
29422;SDS011;16399;51.686;8.684;2024-02-21T04:49:41;17.00;;;5.60;;
29422;SDS011;16399;51.686;8.684;2024-02-21T04:52:44;17.00;;;6.60;;
29422;SDS011;16399;51.686;8.684;2024-02-21T04:55:46;18.48;;;6.20;;
29422;SDS011;16399;51.686;8.684;2024-02-21T04:58:49;17.20;;;6.45;;
29422;SDS011;16399;51.686;8.684;2024-02-21T05:01:52;18.02;;;6.08;;
29422;SDS011;16399;51.686;8.684;2024-02-21T05:04:54;21.33;;;6.70;;
29422;SDS011;16399;51.686;8.684;2024-02-21T05:07:57;12.15;;;5.70;;
29422;SDS011;16399;51.686;8.684;2024-02-21T05:10:59;11.10;;;5.78;;
29422;SDS011;16399;51.686;8.684;2024-02-21T05:14:01;15.60;;;6.20;;
29422;SDS011;16399;51.686;8.684;2024-02-21T05:17:04;18.92;;;6.83;;
29422;SDS011;16399;51.686;8.684;2024-02-21T05:20:06;14.78;;;6.42;;
29422;SDS011;16399;51.686;8.684;2024-02-21T05:23:09;18.77;;;6.67;;
29422;SDS011;16399;51.686;8.684;2024-02-21T05:26:11;16.48;;;6.58;;
29422;SDS011;16399;51.686;8.684;2024-02-21T05:29:17;19.35;;;6.97;;
29422;SDS011;16399;51.686;8.684;2024-02-21T05:32:19;14.50;;;6.45;;
29422;SDS011;16399;51.686;8.684;2024-02-21T05:35:25;17.42;;;6.78;;
29422;SDS011;16399;51.686;8.684;2024-02-21T05:38:28;20.97;;;7.70;;
29422;SDS011;16399;51.686;8.684;2024-02-21T05:41:30;19.07;;;7.53;;
29422;SDS011;16399;51.686;8.684;2024-02-21T05:44:33;15.68;;;7.58;;
29422;SDS011;16399;51.686;8.684;2024-02-21T05:47:35;17.45;;;6.55;;
29422;SDS011;16399;51.686;8.684;2024-02-21T05:50:37;17.37;;;6.65;;
29422;SDS011;16399;51.686;8.684;2024-02-21T05:53:40;18.48;;;7.50;;
29422;SDS011;16399;51.686;8.684;2024-02-21T05:56:45;19.77;;;7.15;;
29422;SDS011;16399;51.686;8.684;2024-02-21T05:59:47;20.55;;;7.28;;
29422;SDS011;16399;51.686;8.684;2024-02-21T06:02:50;16.12;;;6.80;;
29422;SDS011;16399;51.686;8.684;2024-02-21T06:05:52;15.28;;;6.92;;
29422;SDS011;16399;51.686;8.684;2024-02-21T06:08:54;17.77;;;6.50;;
29422;SDS011;16399;51.686;8.684;2024-02-21T06:11:57;16.40;;;6.70;;
29422;SDS011;16399;51.686;8.684;2024-02-21T06:15:00;17.75;;;6.65;;
29422;SDS011;16399;51.686;8.684;2024-02-21T06:18:02;19.70;;;7.10;;
29422;SDS011;16399;51.686;8.684;2024-02-21T06:21:04;18.90;;;7.35;;
29422;SDS011;16399;51.686;8.684;2024-02-21T06:24:07;18.57;;;6.53;;
29422;SDS011;16399;51.686;8.684;2024-02-21T06:27:10;18.98;;;6.72;;
29422;SDS011;16399;51.686;8.684;2024-02-21T06:30:12;15.58;;;6.45;;
29422;SDS011;16399;51.686;8.684;2024-02-21T06:33:15;13.20;;;6.00;;
29422;SDS011;16399;51.686;8.684;2024-02-21T06:36:17;18.90;;;6.33;;
29422;SDS011;16399;51.686;8.684;2024-02-21T06:39:19;16.77;;;7.17;;
29422;SDS011;16399;51.686;8.684;2024-02-21T06:42:26;15.08;;;6.30;;
29422;SDS011;16399;51.686;8.684;2024-02-21T06:45:30;19.67;;;7.12;;
29422;SDS011;16399;51.686;8.684;2024-02-21T06:48:32;17.82;;;6.58;;
29422;SDS011;16399;51.686;8.684;2024-02-21T06:51:34;17.52;;;6.90;;
29422;SDS011;16399;51.686;8.684;2024-02-21T06:54:37;18.07;;;7.03;;
29422;SDS011;16399;51.686;8.684;2024-02-21T06:57:40;16.93;;;6.20;;
29422;SDS011;16399;51.686;8.684;2024-02-21T07:00:42;16.85;;;7.00;;
29422;SDS011;16399;51.686;8.684;2024-02-21T07:03:45;16.60;;;6.12;;
29422;SDS011;16399;51.686;8.684;2024-02-21T07:06:47;18.07;;;6.30;;
29422;SDS011;16399;51.686;8.684;2024-02-21T07:09:49;20.62;;;6.70;;
29422;SDS011;16399;51.686;8.684;2024-02-21T07:12:53;17.53;;;6.37;;
29422;SDS011;16399;51.686;8.684;2024-02-21T07:15:56;12.82;;;5.62;;
29422;SDS011;16399;51.686;8.684;2024-02-21T07:18:58;16.77;;;6.15;;
29422;SDS011;16399;51.686;8.684;2024-02-21T07:22:00;14.50;;;5.72;;
29422;SDS011;16399;51.686;8.684;2024-02-21T07:25:03;13.65;;;5.83;;
29422;SDS011;16399;51.686;8.684;2024-02-21T07:28:06;14.80;;;5.47;;
29422;SDS011;16399;51.686;8.684;2024-02-21T07:31:08;18.73;;;5.85;;
29422;SDS011;16399;51.686;8.684;2024-02-21T07:34:11;11.68;;;5.67;;
29422;SDS011;16399;51.686;8.684;2024-02-21T07:37:13;15.23;;;5.70;;
29422;SDS011;16399;51.686;8.684;2024-02-21T07:40:15;22.62;;;7.08;;
29422;SDS011;16399;51.686;8.684;2024-02-21T07:43:18;11.78;;;5.80;;
29422;SDS011;16399;51.686;8.684;2024-02-21T07:46:22;15.58;;;5.90;;
29422;SDS011;16399;51.686;8.684;2024-02-21T07:49:24;13.75;;;5.30;;
29422;SDS011;16399;51.686;8.684;2024-02-21T07:52:27;13.68;;;5.80;;
29422;SDS011;16399;51.686;8.684;2024-02-21T07:55:29;11.78;;;5.17;;
29422;SDS011;16399;51.686;8.684;2024-02-21T07:58:31;16.57;;;5.30;;
29422;SDS011;16399;51.686;8.684;2024-02-21T08:01:33;11.08;;;4.72;;
29422;SDS011;16399;51.686;8.684;2024-02-21T08:04:36;15.18;;;5.42;;
29422;SDS011;16399;51.686;8.684;2024-02-21T08:07:39;13.13;;;5.08;;
29422;SDS011;16399;51.686;8.684;2024-02-21T08:10:41;13.22;;;5.35;;
29422;SDS011;16399;51.686;8.684;2024-02-21T08:13:43;14.30;;;5.47;;
29422;SDS011;16399;51.686;8.684;2024-02-21T08:16:46;13.80;;;5.20;;
29422;SDS011;16399;51.686;8.684;2024-02-21T08:19:48;12.45;;;5.10;;
29422;SDS011;16399;51.686;8.684;2024-02-21T08:22:51;15.03;;;5.95;;
29422;SDS011;16399;51.686;8.684;2024-02-21T08:25:53;9.05;;;4.90;;
29422;SDS011;16399;51.686;8.684;2024-02-21T08:28:56;16.70;;;5.33;;
29422;SDS011;16399;51.686;8.684;2024-02-21T08:32:01;11.95;;;4.75;;
29422;SDS011;16399;51.686;8.684;2024-02-21T08:35:04;15.35;;;5.50;;
29422;SDS011;16399;51.686;8.684;2024-02-21T08:38:06;13.95;;;4.97;;
29422;SDS011;16399;51.686;8.684;2024-02-21T08:41:08;11.20;;;4.30;;
29422;SDS011;16399;51.686;8.684;2024-02-21T08:44:11;13.22;;;3.83;;
29422;SDS011;16399;51.686;8.684;2024-02-21T08:47:13;8.78;;;3.77;;
29422;SDS011;16399;51.686;8.684;2024-02-21T08:50:16;12.10;;;3.40;;
29422;SDS011;16399;51.686;8.684;2024-02-21T08:53:18;7.05;;;3.15;;
29422;SDS011;16399;51.686;8.684;2024-02-21T08:56:21;11.57;;;3.35;;
29422;SDS011;16399;51.686;8.684;2024-02-21T08:59:23;8.70;;;3.42;;
29422;SDS011;16399;51.686;8.684;2024-02-21T09:02:26;8.78;;;3.22;;
29422;SDS011;16399;51.686;8.684;2024-02-21T09:05:29;16.67;;;4.65;;
29422;SDS011;16399;51.686;8.684;2024-02-21T09:08:31;10.20;;;3.95;;
29422;SDS011;16399;51.686;8.684;2024-02-21T09:11:34;9.45;;;4.65;;
29422;SDS011;16399;51.686;8.684;2024-02-21T09:14:37;11.78;;;4.92;;
29422;SDS011;16399;51.686;8.684;2024-02-21T09:17:39;11.65;;;6.33;;
29422;SDS011;16399;51.686;8.684;2024-02-21T09:20:41;14.43;;;6.62;;
29422;SDS011;16399;51.686;8.684;2024-02-21T09:23:45;13.35;;;7.00;;
29422;SDS011;16399;51.686;8.684;2024-02-21T09:26:47;17.05;;;8.18;;
29422;SDS011;16399;51.686;8.684;2024-02-21T09:29:50;14.47;;;7.12;;
29422;SDS011;16399;51.686;8.684;2024-02-21T09:32:52;17.90;;;8.05;;
29422;SDS011;16399;51.686;8.684;2024-02-21T09:35:55;17.70;;;8.10;;
29422;SDS011;16399;51.686;8.684;2024-02-21T09:38:57;14.80;;;8.85;;
29422;SDS011;16399;51.686;8.684;2024-02-21T09:42:01;14.75;;;7.70;;
29422;SDS011;16399;51.686;8.684;2024-02-21T09:45:09;14.83;;;7.80;;
29422;SDS011;16399;51.686;8.684;2024-02-21T09:51:54;17.57;;;6.97;;
29422;SDS011;16399;51.686;8.684;2024-02-21T09:54:58;16.30;;;7.40;;
29422;SDS011;16399;51.686;8.684;2024-02-21T09:58:02;14.90;;;6.87;;
29422;SDS011;16399;51.686;8.684;2024-02-21T10:01:05;14.50;;;6.75;;
29422;SDS011;16399;51.686;8.684;2024-02-21T10:04:07;15.25;;;6.58;;
29422;SDS011;16399;51.686;8.684;2024-02-21T10:07:10;15.38;;;6.45;;
29422;SDS011;16399;51.686;8.684;2024-02-21T10:10:13;12.60;;;5.60;;
29422;SDS011;16399;51.686;8.684;2024-02-21T10:13:26;15.93;;;5.63;;
29422;SDS011;16399;51.686;8.684;2024-02-21T10:19:34;10.68;;;4.72;;
29422;SDS011;16399;51.686;8.684;2024-02-21T10:22:37;13.68;;;4.45;;
29422;SDS011;16399;51.686;8.684;2024-02-21T10:25:40;9.25;;;3.65;;
29422;SDS011;16399;51.686;8.684;2024-02-21T10:28:44;13.20;;;3.72;;
29422;SDS011;16399;51.686;8.684;2024-02-21T10:31:47;9.80;;;4.30;;
29422;SDS011;16399;51.686;8.684;2024-02-21T10:34:50;8.78;;;3.22;;
29422;SDS011;16399;51.686;8.684;2024-02-21T10:37:54;10.73;;;3.37;;
29422;SDS011;16399;51.686;8.684;2024-02-21T10:40:57;9.60;;;3.17;;
29422;SDS011;16399;51.686;8.684;2024-02-21T10:43:59;9.68;;;3.02;;
29422;SDS011;16399;51.686;8.684;2024-02-21T10:47:08;8.08;;;2.62;;
29422;SDS011;16399;51.686;8.684;2024-02-21T10:50:13;9.03;;;2.65;;
29422;SDS011;16399;51.686;8.684;2024-02-21T10:56:43;14.43;;;2.60;;
29422;SDS011;16399;51.686;8.684;2024-02-21T10:59:47;7.35;;;2.40;;
29422;SDS011;16399;51.686;8.684;2024-02-21T11:02:50;10.48;;;2.40;;
29422;SDS011;16399;51.686;8.684;2024-02-21T11:05:52;8.55;;;2.30;;
29422;SDS011;16399;51.686;8.684;2024-02-21T11:09:04;8.30;;;2.47;;
29422;SDS011;16399;51.686;8.684;2024-02-21T11:12:11;9.00;;;2.10;;
29422;SDS011;16399;51.686;8.684;2024-02-21T11:15:14;9.67;;;2.60;;
29422;SDS011;16399;51.686;8.684;2024-02-21T11:18:23;6.25;;;2.00;;
29422;SDS011;16399;51.686;8.684;2024-02-21T11:21:32;10.15;;;2.40;;
29422;SDS011;16399;51.686;8.684;2024-02-21T11:24:36;7.62;;;2.50;;
29422;SDS011;16399;51.686;8.684;2024-02-21T11:27:39;8.58;;;2.20;;
29422;SDS011;16399;51.686;8.684;2024-02-21T11:30:48;5.75;;;2.15;;
29422;SDS011;16399;51.686;8.684;2024-02-21T11:33:51;9.70;;;2.47;;
29422;SDS011;16399;51.686;8.684;2024-02-21T11:36:54;10.75;;;2.45;;
29422;SDS011;16399;51.686;8.684;2024-02-21T11:39:56;8.08;;;2.45;;
29422;SDS011;16399;51.686;8.684;2024-02-21T11:42:59;7.42;;;2.15;;
29422;SDS011;16399;51.686;8.684;2024-02-21T11:46:01;6.15;;;1.92;;
29422;SDS011;16399;51.686;8.684;2024-02-21T11:49:05;8.45;;;2.15;;
29422;SDS011;16399;51.686;8.684;2024-02-21T11:52:08;7.87;;;2.00;;
29422;SDS011;16399;51.686;8.684;2024-02-21T11:55:10;10.18;;;2.15;;
29422;SDS011;16399;51.686;8.684;2024-02-21T11:58:13;9.75;;;2.27;;
29422;SDS011;16399;51.686;8.684;2024-02-21T12:01:16;10.25;;;2.55;;
29422;SDS011;16399;51.686;8.684;2024-02-21T12:04:18;6.67;;;1.87;;
29422;SDS011;16399;51.686;8.684;2024-02-21T12:07:22;8.88;;;2.50;;
29422;SDS011;16399;51.686;8.684;2024-02-21T12:10:30;7.55;;;2.02;;
29422;SDS011;16399;51.686;8.684;2024-02-21T12:13:28;7.17;;;2.37;;
29422;SDS011;16399;51.686;8.684;2024-02-21T12:16:31;6.17;;;1.92;;
29422;SDS011;16399;51.686;8.684;2024-02-21T12:19:34;6.55;;;2.10;;
29422;SDS011;16399;51.686;8.684;2024-02-21T12:22:42;8.25;;;2.05;;
29422;SDS011;16399;51.686;8.684;2024-02-21T12:25:40;8.80;;;2.87;;
29422;SDS011;16399;51.686;8.684;2024-02-21T12:28:43;9.05;;;2.12;;
29422;SDS011;16399;51.686;8.684;2024-02-21T12:31:45;12.98;;;2.55;;
29422;SDS011;16399;51.686;8.684;2024-02-21T12:34:48;11.90;;;2.20;;
29422;SDS011;16399;51.686;8.684;2024-02-21T12:37:50;7.25;;;2.33;;
29422;SDS011;16399;51.686;8.684;2024-02-21T12:40:52;9.53;;;2.05;;
29422;SDS011;16399;51.686;8.684;2024-02-21T12:43:55;8.80;;;2.55;;
29422;SDS011;16399;51.686;8.684;2024-02-21T12:46:57;9.40;;;2.67;;
29422;SDS011;16399;51.686;8.684;2024-02-21T12:49:59;9.03;;;2.95;;
29422;SDS011;16399;51.686;8.684;2024-02-21T12:53:03;8.83;;;2.20;;
29422;SDS011;16399;51.686;8.684;2024-02-21T12:56:06;6.83;;;2.10;;
29422;SDS011;16399;51.686;8.684;2024-02-21T12:59:08;6.50;;;2.45;;
29422;SDS011;16399;51.686;8.684;2024-02-21T13:02:10;8.08;;;1.80;;
29422;SDS011;16399;51.686;8.684;2024-02-21T13:05:13;11.15;;;2.40;;
29422;SDS011;16399;51.686;8.684;2024-02-21T13:08:15;9.28;;;2.35;;
29422;SDS011;16399;51.686;8.684;2024-02-21T13:11:17;10.88;;;2.50;;
29422;SDS011;16399;51.686;8.684;2024-02-21T13:14:20;7.45;;;2.12;;
29422;SDS011;16399;51.686;8.684;2024-02-21T13:17:23;9.50;;;2.02;;
29422;SDS011;16399;51.686;8.684;2024-02-21T13:20:27;13.25;;;2.22;;
29422;SDS011;16399;51.686;8.684;2024-02-21T13:23:29;7.10;;;1.80;;
29422;SDS011;16399;51.686;8.684;2024-02-21T13:26:31;5.95;;;1.70;;
29422;SDS011;16399;51.686;8.684;2024-02-21T13:29:34;9.20;;;2.15;;
29422;SDS011;16399;51.686;8.684;2024-02-21T13:32:36;7.83;;;2.00;;
29422;SDS011;16399;51.686;8.684;2024-02-21T13:35:38;7.08;;;1.98;;
29422;SDS011;16399;51.686;8.684;2024-02-21T13:38:41;4.75;;;1.70;;
29422;SDS011;16399;51.686;8.684;2024-02-21T13:41:43;7.40;;;1.95;;
29422;SDS011;16399;51.686;8.684;2024-02-21T13:44:47;7.47;;;2.58;;
29422;SDS011;16399;51.686;8.684;2024-02-21T13:47:49;10.25;;;2.75;;
29422;SDS011;16399;51.686;8.684;2024-02-21T13:50:52;9.28;;;2.35;;
29422;SDS011;16399;51.686;8.684;2024-02-21T13:53:54;8.13;;;2.22;;
29422;SDS011;16399;51.686;8.684;2024-02-21T13:56:57;6.45;;;2.22;;
29422;SDS011;16399;51.686;8.684;2024-02-21T13:59:59;4.47;;;1.60;;
29422;SDS011;16399;51.686;8.684;2024-02-21T14:03:03;7.30;;;1.70;;
29422;SDS011;16399;51.686;8.684;2024-02-21T14:06:06;6.97;;;1.98;;
29422;SDS011;16399;51.686;8.684;2024-02-21T14:09:16;7.17;;;2.40;;
29422;SDS011;16399;51.686;8.684;2024-02-21T14:12:15;8.48;;;1.95;;
29422;SDS011;16399;51.686;8.684;2024-02-21T14:15:19;8.15;;;2.20;;
29422;SDS011;16399;51.686;8.684;2024-02-21T14:18:21;6.97;;;2.00;;
29422;SDS011;16399;51.686;8.684;2024-02-21T14:21:23;8.78;;;1.90;;
29422;SDS011;16399;51.686;8.684;2024-02-21T14:24:26;8.45;;;2.00;;
29422;SDS011;16399;51.686;8.684;2024-02-21T14:27:28;7.65;;;2.05;;
29422;SDS011;16399;51.686;8.684;2024-02-21T14:30:30;7.53;;;1.98;;
29422;SDS011;16399;51.686;8.684;2024-02-21T14:33:33;8.18;;;2.08;;
29422;SDS011;16399;51.686;8.684;2024-02-21T14:36:36;6.92;;;2.20;;
29422;SDS011;16399;51.686;8.684;2024-02-21T14:39:38;7.70;;;2.05;;
29422;SDS011;16399;51.686;8.684;2024-02-21T14:42:40;7.87;;;2.37;;
29422;SDS011;16399;51.686;8.684;2024-02-21T14:45:43;6.50;;;2.15;;
29422;SDS011;16399;51.686;8.684;2024-02-21T14:51:49;7.62;;;2.30;;
29422;SDS011;16399;51.686;8.684;2024-02-21T14:54:51;9.60;;;2.72;;
29422;SDS011;16399;51.686;8.684;2024-02-21T14:57:54;9.28;;;3.10;;
29422;SDS011;16399;51.686;8.684;2024-02-21T15:00:56;11.97;;;2.95;;
29422;SDS011;16399;51.686;8.684;2024-02-21T15:03:59;9.63;;;2.83;;
29422;SDS011;16399;51.686;8.684;2024-02-21T15:07:01;12.90;;;3.30;;
29422;SDS011;16399;51.686;8.684;2024-02-21T15:10:04;9.80;;;2.87;;
29422;SDS011;16399;51.686;8.684;2024-02-21T15:13:07;9.85;;;3.12;;
29422;SDS011;16399;51.686;8.684;2024-02-21T15:16:09;9.45;;;2.98;;
29422;SDS011;16399;51.686;8.684;2024-02-21T15:19:11;12.45;;;2.75;;
29422;SDS011;16399;51.686;8.684;2024-02-21T15:22:13;8.88;;;3.10;;
29422;SDS011;16399;51.686;8.684;2024-02-21T15:25:17;9.08;;;2.83;;
29422;SDS011;16399;51.686;8.684;2024-02-21T15:28:20;16.57;;;5.60;;
29422;SDS011;16399;51.686;8.684;2024-02-21T15:31:22;12.58;;;4.50;;
29422;SDS011;16399;51.686;8.684;2024-02-21T15:34:25;8.38;;;3.08;;
29422;SDS011;16399;51.686;8.684;2024-02-21T15:37:27;8.18;;;2.87;;
29422;SDS011;16399;51.686;8.684;2024-02-21T15:40:30;8.10;;;2.72;;
29422;SDS011;16399;51.686;8.684;2024-02-21T15:43:34;11.53;;;3.50;;
29422;SDS011;16399;51.686;8.684;2024-02-21T15:46:38;11.20;;;2.98;;
29422;SDS011;16399;51.686;8.684;2024-02-21T15:49:41;9.68;;;3.30;;
29422;SDS011;16399;51.686;8.684;2024-02-21T15:52:43;9.18;;;2.20;;
29422;SDS011;16399;51.686;8.684;2024-02-21T15:55:45;10.08;;;2.05;;
29422;SDS011;16399;51.686;8.684;2024-02-21T15:58:47;8.78;;;2.50;;
29422;SDS011;16399;51.686;8.684;2024-02-21T16:01:50;8.10;;;2.27;;
29422;SDS011;16399;51.686;8.684;2024-02-21T16:04:52;12.98;;;2.87;;
29422;SDS011;16399;51.686;8.684;2024-02-21T16:07:56;10.80;;;1.85;;
29422;SDS011;16399;51.686;8.684;2024-02-21T16:10:58;6.45;;;2.00;;
29422;SDS011;16399;51.686;8.684;2024-02-21T16:14:01;8.70;;;2.40;;
29422;SDS011;16399;51.686;8.684;2024-02-21T16:17:03;7.53;;;2.02;;
29422;SDS011;16399;51.686;8.684;2024-02-21T16:20:06;8.05;;;2.30;;
29422;SDS011;16399;51.686;8.684;2024-02-21T16:23:13;8.65;;;2.42;;
29422;SDS011;16399;51.686;8.684;2024-02-21T16:26:16;10.20;;;2.70;;
29422;SDS011;16399;51.686;8.684;2024-02-21T16:29:18;9.50;;;2.80;;
29422;SDS011;16399;51.686;8.684;2024-02-21T16:32:22;10.68;;;2.37;;
29422;SDS011;16399;51.686;8.684;2024-02-21T16:35:26;12.47;;;2.40;;
29422;SDS011;16399;51.686;8.684;2024-02-21T16:38:29;6.95;;;2.17;;
29422;SDS011;16399;51.686;8.684;2024-02-21T16:41:33;9.20;;;2.72;;
29422;SDS011;16399;51.686;8.684;2024-02-21T16:44:36;11.50;;;2.52;;
29422;SDS011;16399;51.686;8.684;2024-02-21T16:47:38;9.63;;;2.67;;
29422;SDS011;16399;51.686;8.684;2024-02-21T16:50:40;7.75;;;2.50;;
29422;SDS011;16399;51.686;8.684;2024-02-21T16:53:43;10.53;;;2.70;;
29422;SDS011;16399;51.686;8.684;2024-02-21T16:56:46;7.62;;;2.77;;
29422;SDS011;16399;51.686;8.684;2024-02-21T16:59:49;6.65;;;2.00;;
29422;SDS011;16399;51.686;8.684;2024-02-21T17:02:51;10.45;;;2.05;;
29422;SDS011;16399;51.686;8.684;2024-02-21T17:05:53;6.33;;;2.22;;
29422;SDS011;16399;51.686;8.684;2024-02-21T17:08:56;7.47;;;2.08;;
29422;SDS011;16399;51.686;8.684;2024-02-21T17:11:59;7.65;;;1.92;;
29422;SDS011;16399;51.686;8.684;2024-02-21T17:15:01;8.13;;;1.67;;
29422;SDS011;16399;51.686;8.684;2024-02-21T17:18:05;7.40;;;1.95;;
29422;SDS011;16399;51.686;8.684;2024-02-21T17:21:07;10.65;;;2.02;;
29422;SDS011;16399;51.686;8.684;2024-02-21T17:24:10;6.75;;;1.98;;
29422;SDS011;16399;51.686;8.684;2024-02-21T17:27:12;13.50;;;3.05;;
29422;SDS011;16399;51.686;8.684;2024-02-21T17:30:14;8.70;;;1.92;;
29422;SDS011;16399;51.686;8.684;2024-02-21T17:33:17;5.35;;;1.65;;
29422;SDS011;16399;51.686;8.684;2024-02-21T17:36:19;6.08;;;1.45;;
29422;SDS011;16399;51.686;8.684;2024-02-21T17:39:21;4.40;;;1.52;;
29422;SDS011;16399;51.686;8.684;2024-02-21T17:42:24;4.42;;;1.35;;
29422;SDS011;16399;51.686;8.684;2024-02-21T17:45:26;6.60;;;1.92;;
29422;SDS011;16399;51.686;8.684;2024-02-21T17:48:28;8.30;;;1.85;;
29422;SDS011;16399;51.686;8.684;2024-02-21T17:51:30;3.87;;;1.30;;
29422;SDS011;16399;51.686;8.684;2024-02-21T17:54:33;6.42;;;1.50;;
29422;SDS011;16399;51.686;8.684;2024-02-21T17:57:35;10.32;;;1.65;;
29422;SDS011;16399;51.686;8.684;2024-02-21T18:00:37;5.30;;;1.40;;
29422;SDS011;16399;51.686;8.684;2024-02-21T18:03:41;3.35;;;1.42;;
29422;SDS011;16399;51.686;8.684;2024-02-21T18:06:44;7.20;;;1.42;;
29422;SDS011;16399;51.686;8.684;2024-02-21T18:09:46;3.80;;;1.20;;
29422;SDS011;16399;51.686;8.684;2024-02-21T18:12:50;7.15;;;1.50;;
29422;SDS011;16399;51.686;8.684;2024-02-21T18:15:53;3.85;;;1.20;;
29422;SDS011;16399;51.686;8.684;2024-02-21T18:18:55;6.12;;;1.70;;
29422;SDS011;16399;51.686;8.684;2024-02-21T18:21:57;6.65;;;1.70;;
29422;SDS011;16399;51.686;8.684;2024-02-21T18:25:00;7.67;;;1.75;;
29422;SDS011;16399;51.686;8.684;2024-02-21T18:28:03;6.05;;;1.92;;
29422;SDS011;16399;51.686;8.684;2024-02-21T18:31:05;6.05;;;1.55;;
29422;SDS011;16399;51.686;8.684;2024-02-21T18:34:07;9.45;;;1.75;;